sensor_id;sensor_type;location;lat;lon;timestamp;temperature;humidity
59307;DHT22;47983;53.016;-2.260;2022-09-09T00:04:36;13.60;99.90
59307;DHT22;47983;53.016;-2.260;2022-09-09T00:06:45;13.60;99.90
59307;DHT22;47983;53.016;-2.260;2022-09-09T00:09:17;13.60;99.90
59307;DHT22;47983;53.016;-2.260;2022-09-09T00:11:46;13.60;99.90
59307;DHT22;47983;53.016;-2.260;2022-09-09T00:14:21;13.50;99.90
59307;DHT22;47983;53.016;-2.260;2022-09-09T00:16:53;13.50;99.90
59307;DHT22;47983;53.016;-2.260;2022-09-09T00:19:26;13.50;99.90
59307;DHT22;47983;53.016;-2.260;2022-09-09T00:24:30;13.50;99.90
59307;DHT22;47983;53.016;-2.260;2022-09-09T00:27:04;13.60;99.90
59307;DHT22;47983;53.016;-2.260;2022-09-09T00:29:43;13.60;99.90
59307;DHT22;47983;53.016;-2.260;2022-09-09T00:32:16;13.60;99.90
59307;DHT22;47983;53.016;-2.260;2022-09-09T00:35:03;13.60;99.90
59307;DHT22;47983;53.016;-2.260;2022-09-09T00:37:31;13.60;99.90
59307;DHT22;47983;53.016;-2.260;2022-09-09T00:40:01;13.60;99.90
59307;DHT22;47983;53.016;-2.260;2022-09-09T00:42:36;13.70;99.90
59307;DHT22;47983;53.016;-2.260;2022-09-09T00:45:17;13.70;99.90
59307;DHT22;47983;53.016;-2.260;2022-09-09T00:47:50;13.70;99.90
59307;DHT22;47983;53.016;-2.260;2022-09-09T00:50:24;13.70;99.90
59307;DHT22;47983;53.016;-2.260;2022-09-09T00:55:49;13.70;99.90
59307;DHT22;47983;53.016;-2.260;2022-09-09T00:58:17;13.70;99.90
59307;DHT22;47983;53.016;-2.260;2022-09-09T01:00:52;13.70;99.90
59307;DHT22;47983;53.016;-2.260;2022-09-09T01:03:27;13.70;99.90
59307;DHT22;47983;53.016;-2.260;2022-09-09T01:13:49;13.80;99.90
59307;DHT22;47983;53.016;-2.260;2022-09-09T01:16:20;13.80;99.90
59307;DHT22;47983;53.016;-2.260;2022-09-09T01:18:49;13.80;99.90
59307;DHT22;47983;53.016;-2.260;2022-09-09T01:26:37;13.90;99.90
59307;DHT22;47983;53.016;-2.260;2022-09-09T01:29:13;13.90;99.90
59307;DHT22;47983;53.016;-2.260;2022-09-09T01:31:52;13.90;99.90
59307;DHT22;47983;53.016;-2.260;2022-09-09T01:34:21;13.90;99.90
59307;DHT22;47983;53.016;-2.260;2022-09-09T01:39:19;13.90;99.90
59307;DHT22;47983;53.016;-2.260;2022-09-09T01:41:54;14.00;99.90
59307;DHT22;47983;53.016;-2.260;2022-09-09T01:44:23;14.00;99.90
59307;DHT22;47983;53.016;-2.260;2022-09-09T01:46:51;14.00;99.90
59307;DHT22;47983;53.016;-2.260;2022-09-09T01:49:21;14.00;99.90
59307;DHT22;47983;53.016;-2.260;2022-09-09T01:51:50;14.10;99.90
59307;DHT22;47983;53.016;-2.260;2022-09-09T01:54:24;14.10;99.90
59307;DHT22;47983;53.016;-2.260;2022-09-09T01:57:05;14.10;99.90
59307;DHT22;47983;53.016;-2.260;2022-09-09T01:59:45;14.10;99.90
59307;DHT22;47983;53.016;-2.260;2022-09-09T02:02:18;14.20;99.90
59307;DHT22;47983;53.016;-2.260;2022-09-09T02:05:12;14.20;99.90
59307;DHT22;47983;53.016;-2.260;2022-09-09T02:07:41;14.20;99.90
59307;DHT22;47983;53.016;-2.260;2022-09-09T02:10:40;14.20;99.90
59307;DHT22;47983;53.016;-2.260;2022-09-09T02:13:16;14.30;99.90
59307;DHT22;47983;53.016;-2.260;2022-09-09T02:18:12;14.30;99.90
59307;DHT22;47983;53.016;-2.260;2022-09-09T02:20:42;14.30;99.90
59307;DHT22;47983;53.016;-2.260;2022-09-09T02:23:10;14.30;99.90
59307;DHT22;47983;53.016;-2.260;2022-09-09T02:25:39;14.40;99.90
59307;DHT22;47983;53.016;-2.260;2022-09-09T02:28:18;14.30;99.90
59307;DHT22;47983;53.016;-2.260;2022-09-09T02:30:57;14.30;99.90
59307;DHT22;47983;53.016;-2.260;2022-09-09T02:33:52;14.30;99.90
59307;DHT22;47983;53.016;-2.260;2022-09-09T02:36:21;14.40;99.90
59307;DHT22;47983;53.016;-2.260;2022-09-09T02:38:49;14.30;99.90
59307;DHT22;47983;53.016;-2.260;2022-09-09T02:41:24;14.40;99.90
59307;DHT22;47983;53.016;-2.260;2022-09-09T02:43:54;14.30;99.90
59307;DHT22;47983;53.016;-2.260;2022-09-09T02:49:11;14.40;99.90
59307;DHT22;47983;53.016;-2.260;2022-09-09T02:56:42;14.50;99.90
59307;DHT22;47983;53.016;-2.260;2022-09-09T02:59:11;14.50;99.90
59307;DHT22;47983;53.016;-2.260;2022-09-09T03:01:40;14.50;99.90
59307;DHT22;47983;53.016;-2.260;2022-09-09T03:04:09;14.50;99.90
59307;DHT22;47983;53.016;-2.260;2022-09-09T03:06:38;14.60;99.90
59307;DHT22;47983;53.016;-2.260;2022-09-09T03:09:15;14.50;99.90
59307;DHT22;47983;53.016;-2.260;2022-09-09T03:11:43;14.60;99.90
59307;DHT22;47983;53.016;-2.260;2022-09-09T03:14:11;14.60;99.90
59307;DHT22;47983;53.016;-2.260;2022-09-09T03:16:40;14.60;99.90
59307;DHT22;47983;53.016;-2.260;2022-09-09T03:19:07;14.60;99.90
59307;DHT22;47983;53.016;-2.260;2022-09-09T03:21:35;14.60;99.90
59307;DHT22;47983;53.016;-2.260;2022-09-09T03:24:02;14.60;99.90
59307;DHT22;47983;53.016;-2.260;2022-09-09T03:26:31;14.60;99.90
59307;DHT22;47983;53.016;-2.260;2022-09-09T03:29:00;14.60;99.90
59307;DHT22;47983;53.016;-2.260;2022-09-09T03:31:29;14.60;99.90
59307;DHT22;47983;53.016;-2.260;2022-09-09T03:33:58;14.60;99.90
59307;DHT22;47983;53.016;-2.260;2022-09-09T03:36:29;14.60;99.90
59307;DHT22;47983;53.016;-2.260;2022-09-09T03:38:57;14.60;99.90
59307;DHT22;47983;53.016;-2.260;2022-09-09T03:41:28;14.60;99.90
59307;DHT22;47983;53.016;-2.260;2022-09-09T03:43:56;14.60;99.90
59307;DHT22;47983;53.016;-2.260;2022-09-09T03:46:25;14.60;99.90
59307;DHT22;47983;53.016;-2.260;2022-09-09T03:48:54;14.60;99.90
59307;DHT22;47983;53.016;-2.260;2022-09-09T03:51:21;14.60;99.90
59307;DHT22;47983;53.016;-2.260;2022-09-09T03:53:50;14.60;99.90
59307;DHT22;47983;53.016;-2.260;2022-09-09T03:56:17;14.60;99.90
59307;DHT22;47983;53.016;-2.260;2022-09-09T03:58:45;14.60;99.90
59307;DHT22;47983;53.016;-2.260;2022-09-09T04:01:13;14.60;99.90
59307;DHT22;47983;53.016;-2.260;2022-09-09T04:03:43;14.60;99.90
59307;DHT22;47983;53.016;-2.260;2022-09-09T04:06:11;14.50;99.90
59307;DHT22;47983;53.016;-2.260;2022-09-09T04:08:42;14.60;99.90
59307;DHT22;47983;53.016;-2.260;2022-09-09T04:11:09;14.50;99.90
59307;DHT22;47983;53.016;-2.260;2022-09-09T04:13:38;14.50;99.90
59307;DHT22;47983;53.016;-2.260;2022-09-09T04:16:09;14.50;99.90
59307;DHT22;47983;53.016;-2.260;2022-09-09T04:18:38;14.50;99.90
59307;DHT22;47983;53.016;-2.260;2022-09-09T04:21:06;14.50;99.90
59307;DHT22;47983;53.016;-2.260;2022-09-09T04:23:35;14.50;99.90
59307;DHT22;47983;53.016;-2.260;2022-09-09T04:26:04;14.50;99.90
59307;DHT22;47983;53.016;-2.260;2022-09-09T04:28:33;14.50;99.90
59307;DHT22;47983;53.016;-2.260;2022-09-09T04:31:06;14.50;99.90
59307;DHT22;47983;53.016;-2.260;2022-09-09T04:33:34;14.50;99.90
59307;DHT22;47983;53.016;-2.260;2022-09-09T04:36:07;14.50;99.90
59307;DHT22;47983;53.016;-2.260;2022-09-09T04:38:35;14.50;99.90
59307;DHT22;47983;53.016;-2.260;2022-09-09T04:41:04;14.40;99.90
59307;DHT22;47983;53.016;-2.260;2022-09-09T04:43:33;14.40;99.90
59307;DHT22;47983;53.016;-2.260;2022-09-09T04:46:03;14.40;99.90
59307;DHT22;47983;53.016;-2.260;2022-09-09T04:48:31;14.40;99.90
59307;DHT22;47983;53.016;-2.260;2022-09-09T04:51:01;14.40;99.90
59307;DHT22;47983;53.016;-2.260;2022-09-09T04:53:31;14.40;99.90
59307;DHT22;47983;53.016;-2.260;2022-09-09T04:56:05;14.40;99.90
59307;DHT22;47983;53.016;-2.260;2022-09-09T04:58:38;14.40;99.90
59307;DHT22;47983;53.016;-2.260;2022-09-09T05:01:07;14.40;99.90
59307;DHT22;47983;53.016;-2.260;2022-09-09T05:03:36;14.40;99.90
59307;DHT22;47983;53.016;-2.260;2022-09-09T05:06:09;14.40;99.90
59307;DHT22;47983;53.016;-2.260;2022-09-09T05:08:37;14.40;99.90
59307;DHT22;47983;53.016;-2.260;2022-09-09T05:11:19;14.40;99.90
59307;DHT22;47983;53.016;-2.260;2022-09-09T05:13:47;14.40;99.90
59307;DHT22;47983;53.016;-2.260;2022-09-09T05:16:15;14.40;99.90
59307;DHT22;47983;53.016;-2.260;2022-09-09T05:18:44;14.40;99.90
59307;DHT22;47983;53.016;-2.260;2022-09-09T05:21:12;14.40;99.90
59307;DHT22;47983;53.016;-2.260;2022-09-09T05:23:40;14.40;99.90
59307;DHT22;47983;53.016;-2.260;2022-09-09T05:26:12;14.50;99.90
59307;DHT22;47983;53.016;-2.260;2022-09-09T05:28:45;14.40;99.90
59307;DHT22;47983;53.016;-2.260;2022-09-09T05:31:13;14.50;99.90
59307;DHT22;47983;53.016;-2.260;2022-09-09T05:33:43;14.40;99.90
59307;DHT22;47983;53.016;-2.260;2022-09-09T05:36:14;14.40;99.90
59307;DHT22;47983;53.016;-2.260;2022-09-09T05:38:42;14.40;99.90
59307;DHT22;47983;53.016;-2.260;2022-09-09T05:41:10;14.40;99.90
59307;DHT22;47983;53.016;-2.260;2022-09-09T05:43:38;14.40;99.90
59307;DHT22;47983;53.016;-2.260;2022-09-09T05:46:07;14.40;99.90
59307;DHT22;47983;53.016;-2.260;2022-09-09T05:48:36;14.40;99.90
59307;DHT22;47983;53.016;-2.260;2022-09-09T05:51:05;14.30;99.90
59307;DHT22;47983;53.016;-2.260;2022-09-09T05:53:34;14.30;99.90
59307;DHT22;47983;53.016;-2.260;2022-09-09T05:56:03;14.30;99.90
59307;DHT22;47983;53.016;-2.260;2022-09-09T05:58:33;14.30;99.90
59307;DHT22;47983;53.016;-2.260;2022-09-09T06:03:31;14.30;99.90
59307;DHT22;47983;53.016;-2.260;2022-09-09T06:06:00;14.30;99.90
59307;DHT22;47983;53.016;-2.260;2022-09-09T06:08:27;14.30;99.90
59307;DHT22;47983;53.016;-2.260;2022-09-09T06:11:00;14.30;99.90
59307;DHT22;47983;53.016;-2.260;2022-09-09T06:13:29;14.30;99.90
59307;DHT22;47983;53.016;-2.260;2022-09-09T06:15:58;14.40;99.90
59307;DHT22;47983;53.016;-2.260;2022-09-09T06:18:26;14.40;99.90
59307;DHT22;47983;53.016;-2.260;2022-09-09T06:20:55;14.50;99.90
59307;DHT22;47983;53.016;-2.260;2022-09-09T06:23:22;14.50;99.90
59307;DHT22;47983;53.016;-2.260;2022-09-09T06:25:49;14.50;99.90
59307;DHT22;47983;53.016;-2.260;2022-09-09T06:28:18;14.60;99.90
59307;DHT22;47983;53.016;-2.260;2022-09-09T06:30:46;14.60;99.90
59307;DHT22;47983;53.016;-2.260;2022-09-09T06:33:14;14.60;99.90
59307;DHT22;47983;53.016;-2.260;2022-09-09T06:35:42;14.70;99.90
59307;DHT22;47983;53.016;-2.260;2022-09-09T06:38:10;14.70;99.90
59307;DHT22;47983;53.016;-2.260;2022-09-09T06:40:38;14.80;99.90
59307;DHT22;47983;53.016;-2.260;2022-09-09T06:43:07;14.90;99.90
59307;DHT22;47983;53.016;-2.260;2022-09-09T06:45:40;14.90;99.90
59307;DHT22;47983;53.016;-2.260;2022-09-09T06:48:08;14.90;99.90
59307;DHT22;47983;53.016;-2.260;2022-09-09T06:50:36;15.00;99.90
59307;DHT22;47983;53.016;-2.260;2022-09-09T06:53:03;15.00;99.90
59307;DHT22;47983;53.016;-2.260;2022-09-09T06:55:31;15.10;99.90
59307;DHT22;47983;53.016;-2.260;2022-09-09T06:57:58;15.10;99.90
59307;DHT22;47983;53.016;-2.260;2022-09-09T07:00:27;15.20;99.90
59307;DHT22;47983;53.016;-2.260;2022-09-09T07:02:55;15.20;99.90
59307;DHT22;47983;53.016;-2.260;2022-09-09T07:05:23;15.30;99.90
59307;DHT22;47983;53.016;-2.260;2022-09-09T07:07:51;15.30;99.90
59307;DHT22;47983;53.016;-2.260;2022-09-09T07:10:21;15.30;99.90
59307;DHT22;47983;53.016;-2.260;2022-09-09T07:12:52;15.40;99.90
59307;DHT22;47983;53.016;-2.260;2022-09-09T07:15:23;15.40;99.90
59307;DHT22;47983;53.016;-2.260;2022-09-09T07:17:50;15.50;99.90
59307;DHT22;47983;53.016;-2.260;2022-09-09T07:20:20;15.60;99.90
59307;DHT22;47983;53.016;-2.260;2022-09-09T07:22:48;15.60;99.90
59307;DHT22;47983;53.016;-2.260;2022-09-09T07:25:15;15.70;99.90
59307;DHT22;47983;53.016;-2.260;2022-09-09T07:27:46;15.70;99.90
59307;DHT22;47983;53.016;-2.260;2022-09-09T07:30:13;15.80;99.90
59307;DHT22;47983;53.016;-2.260;2022-09-09T07:32:51;15.80;99.90
59307;DHT22;47983;53.016;-2.260;2022-09-09T07:35:19;15.90;99.90
59307;DHT22;47983;53.016;-2.260;2022-09-09T07:37:47;15.90;99.90
59307;DHT22;47983;53.016;-2.260;2022-09-09T07:40:18;16.00;99.90
59307;DHT22;47983;53.016;-2.260;2022-09-09T07:42:48;16.00;99.90
59307;DHT22;47983;53.016;-2.260;2022-09-09T07:45:16;16.10;99.90
59307;DHT22;47983;53.016;-2.260;2022-09-09T07:47:44;16.10;99.90
59307;DHT22;47983;53.016;-2.260;2022-09-09T07:50:11;16.20;99.90
59307;DHT22;47983;53.016;-2.260;2022-09-09T07:52:39;16.30;99.90
59307;DHT22;47983;53.016;-2.260;2022-09-09T07:55:07;16.40;99.90
59307;DHT22;47983;53.016;-2.260;2022-09-09T07:57:37;16.50;99.90
59307;DHT22;47983;53.016;-2.260;2022-09-09T08:00:04;16.50;99.90
59307;DHT22;47983;53.016;-2.260;2022-09-09T08:02:38;16.50;99.90
59307;DHT22;47983;53.016;-2.260;2022-09-09T08:05:07;16.50;99.90
59307;DHT22;47983;53.016;-2.260;2022-09-09T08:07:35;16.50;99.90
59307;DHT22;47983;53.016;-2.260;2022-09-09T08:10:03;16.50;99.90
59307;DHT22;47983;53.016;-2.260;2022-09-09T08:12:34;16.60;99.90
59307;DHT22;47983;53.016;-2.260;2022-09-09T08:15:03;16.70;99.90
59307;DHT22;47983;53.016;-2.260;2022-09-09T08:17:32;16.70;99.90
59307;DHT22;47983;53.016;-2.260;2022-09-09T08:20:04;16.70;99.90
59307;DHT22;47983;53.016;-2.260;2022-09-09T08:22:33;16.80;99.90
59307;DHT22;47983;53.016;-2.260;2022-09-09T08:25:01;16.90;99.90
59307;DHT22;47983;53.016;-2.260;2022-09-09T08:27:31;16.90;99.90
59307;DHT22;47983;53.016;-2.260;2022-09-09T08:30:00;16.90;99.90
59307;DHT22;47983;53.016;-2.260;2022-09-09T08:32:29;17.00;99.90
59307;DHT22;47983;53.016;-2.260;2022-09-09T08:34:56;17.00;99.90
59307;DHT22;47983;53.016;-2.260;2022-09-09T08:37:28;17.10;99.90
59307;DHT22;47983;53.016;-2.260;2022-09-09T08:39:56;17.20;99.90
59307;DHT22;47983;53.016;-2.260;2022-09-09T08:42:44;17.20;99.90
59307;DHT22;47983;53.016;-2.260;2022-09-09T08:50:34;17.40;99.90
59307;DHT22;47983;53.016;-2.260;2022-09-09T08:53:16;17.50;99.90
59307;DHT22;47983;53.016;-2.260;2022-09-09T08:55:47;17.50;99.90
59307;DHT22;47983;53.016;-2.260;2022-09-09T08:58:19;17.60;99.90
59307;DHT22;47983;53.016;-2.260;2022-09-09T09:06:31;17.80;99.90
59307;DHT22;47983;53.016;-2.260;2022-09-09T09:09:07;17.80;99.90
59307;DHT22;47983;53.016;-2.260;2022-09-09T09:11:37;17.80;99.90
59307;DHT22;47983;53.016;-2.260;2022-09-09T09:14:10;17.90;99.90
59307;DHT22;47983;53.016;-2.260;2022-09-09T09:19:15;17.90;99.90
59307;DHT22;47983;53.016;-2.260;2022-09-09T09:21:58;17.90;99.90
59307;DHT22;47983;53.016;-2.260;2022-09-09T09:24:30;17.90;99.90
59307;DHT22;47983;53.016;-2.260;2022-09-09T09:27:13;18.00;99.90
59307;DHT22;47983;53.016;-2.260;2022-09-09T09:29:45;18.00;99.90
59307;DHT22;47983;53.016;-2.260;2022-09-09T09:32:33;18.10;99.90
59307;DHT22;47983;53.016;-2.260;2022-09-09T09:35:06;18.10;99.90
59307;DHT22;47983;53.016;-2.260;2022-09-09T09:37:37;18.30;99.90
59307;DHT22;47983;53.016;-2.260;2022-09-09T09:40:24;18.30;99.90
59307;DHT22;47983;53.016;-2.260;2022-09-09T09:48:55;18.70;99.90
59307;DHT22;47983;53.016;-2.260;2022-09-09T09:51:23;18.80;99.90
59307;DHT22;47983;53.016;-2.260;2022-09-09T09:53:52;18.80;99.90
59307;DHT22;47983;53.016;-2.260;2022-09-09T09:56:27;18.90;99.90
59307;DHT22;47983;53.016;-2.260;2022-09-09T09:59:02;18.90;99.90
59307;DHT22;47983;53.016;-2.260;2022-09-09T10:01:44;18.90;99.90
59307;DHT22;47983;53.016;-2.260;2022-09-09T10:04:16;19.10;99.90
59307;DHT22;47983;53.016;-2.260;2022-09-09T10:06:44;19.10;99.90
59307;DHT22;47983;53.016;-2.260;2022-09-09T10:09:20;19.10;99.90
59307;DHT22;47983;53.016;-2.260;2022-09-09T10:11:52;19.10;99.90
59307;DHT22;47983;53.016;-2.260;2022-09-09T10:19:57;19.00;99.90
59307;DHT22;47983;53.016;-2.260;2022-09-09T10:22:30;19.00;99.90
59307;DHT22;47983;53.016;-2.260;2022-09-09T10:27:45;19.10;99.90
59307;DHT22;47983;53.016;-2.260;2022-09-09T10:30:24;19.20;99.90
59307;DHT22;47983;53.016;-2.260;2022-09-09T10:40:58;19.60;99.90
59307;DHT22;47983;53.016;-2.260;2022-09-09T10:51:42;19.90;99.90
59307;DHT22;47983;53.016;-2.260;2022-09-09T10:54:24;19.90;99.90
59307;DHT22;47983;53.016;-2.260;2022-09-09T10:57:02;19.90;99.90
59307;DHT22;47983;53.016;-2.260;2022-09-09T10:59:31;19.80;99.90
59307;DHT22;47983;53.016;-2.260;2022-09-09T11:04:42;19.60;99.90
59307;DHT22;47983;53.016;-2.260;2022-09-09T11:07:13;19.50;99.90
59307;DHT22;47983;53.016;-2.260;2022-09-09T11:09:43;19.50;99.90
59307;DHT22;47983;53.016;-2.260;2022-09-09T11:12:13;19.50;99.90
59307;DHT22;47983;53.016;-2.260;2022-09-09T11:14:43;19.60;99.90
59307;DHT22;47983;53.016;-2.260;2022-09-09T11:19:40;20.20;99.90
59307;DHT22;47983;53.016;-2.260;2022-09-09T11:30:21;20.70;99.90
59307;DHT22;47983;53.016;-2.260;2022-09-09T11:35:50;20.80;99.90
59307;DHT22;47983;53.016;-2.260;2022-09-09T11:38:27;20.90;99.90
59307;DHT22;47983;53.016;-2.260;2022-09-09T11:40:56;21.00;99.90
59307;DHT22;47983;53.016;-2.260;2022-09-09T11:43:29;21.10;99.90
59307;DHT22;47983;53.016;-2.260;2022-09-09T11:46:02;21.20;99.90
59307;DHT22;47983;53.016;-2.260;2022-09-09T11:48:37;21.40;99.90
59307;DHT22;47983;53.016;-2.260;2022-09-09T11:51:09;21.60;99.90
59307;DHT22;47983;53.016;-2.260;2022-09-09T11:53:50;21.70;99.90
59307;DHT22;47983;53.016;-2.260;2022-09-09T11:56:25;21.80;99.90
59307;DHT22;47983;53.016;-2.260;2022-09-09T11:59:03;22.00;99.90
59307;DHT22;47983;53.016;-2.260;2022-09-09T12:04:06;22.20;99.90
59307;DHT22;47983;53.016;-2.260;2022-09-09T12:09:45;22.20;99.90
59307;DHT22;47983;53.016;-2.260;2022-09-09T12:19:42;22.30;99.90
59307;DHT22;47983;53.016;-2.260;2022-09-09T12:24:48;22.50;99.90
59307;DHT22;47983;53.016;-2.260;2022-09-09T12:27:21;22.70;99.90
59307;DHT22;47983;53.016;-2.260;2022-09-09T12:30:07;23.30;99.90
59307;DHT22;47983;53.016;-2.260;2022-09-09T12:32:37;23.70;99.90
59307;DHT22;47983;53.016;-2.260;2022-09-09T12:35:19;23.90;99.90
59307;DHT22;47983;53.016;-2.260;2022-09-09T12:37:51;23.70;99.90
59307;DHT22;47983;53.016;-2.260;2022-09-09T12:40:28;23.60;99.90
59307;DHT22;47983;53.016;-2.260;2022-09-09T12:42:55;23.50;99.90
59307;DHT22;47983;53.016;-2.260;2022-09-09T12:45:27;23.50;99.90
59307;DHT22;47983;53.016;-2.260;2022-09-09T12:47:56;23.60;99.90
59307;DHT22;47983;53.016;-2.260;2022-09-09T12:50:29;23.50;99.90
59307;DHT22;47983;53.016;-2.260;2022-09-09T12:52:58;23.50;99.90
59307;DHT22;47983;53.016;-2.260;2022-09-09T12:55:30;23.40;99.90
59307;DHT22;47983;53.016;-2.260;2022-09-09T12:58:00;23.70;99.90
59307;DHT22;47983;53.016;-2.260;2022-09-09T13:00:32;24.20;99.90
59307;DHT22;47983;53.016;-2.260;2022-09-09T13:03:02;24.90;99.90
59307;DHT22;47983;53.016;-2.260;2022-09-09T13:05:36;25.40;99.20
59307;DHT22;47983;53.016;-2.260;2022-09-09T13:08:05;25.80;99.40
59307;DHT22;47983;53.016;-2.260;2022-09-09T13:10:54;26.40;97.80
59307;DHT22;47983;53.016;-2.260;2022-09-09T13:13:41;27.00;97.90
59307;DHT22;47983;53.016;-2.260;2022-09-09T13:16:42;26.90;96.70
59307;DHT22;47983;53.016;-2.260;2022-09-09T13:19:15;26.30;97.20
59307;DHT22;47983;53.016;-2.260;2022-09-09T13:21:43;25.10;97.20
59307;DHT22;47983;53.016;-2.260;2022-09-09T13:26:59;23.00;99.80
59307;DHT22;47983;53.016;-2.260;2022-09-09T13:29:29;21.80;99.90
59307;DHT22;47983;53.016;-2.260;2022-09-09T13:32:12;21.00;99.90
59307;DHT22;47983;53.016;-2.260;2022-09-09T13:34:53;20.40;99.90
59307;DHT22;47983;53.016;-2.260;2022-09-09T13:39:54;19.40;99.90
59307;DHT22;47983;53.016;-2.260;2022-09-09T13:42:26;19.00;99.90
59307;DHT22;47983;53.016;-2.260;2022-09-09T13:44:55;18.80;99.90
59307;DHT22;47983;53.016;-2.260;2022-09-09T13:47:30;18.50;99.90
59307;DHT22;47983;53.016;-2.260;2022-09-09T13:50:09;18.30;99.90
59307;DHT22;47983;53.016;-2.260;2022-09-09T13:52:37;18.20;99.90
59307;DHT22;47983;53.016;-2.260;2022-09-09T13:55:04;18.10;99.90
59307;DHT22;47983;53.016;-2.260;2022-09-09T13:57:33;17.90;99.90
59307;DHT22;47983;53.016;-2.260;2022-09-09T14:00:01;17.80;99.90
59307;DHT22;47983;53.016;-2.260;2022-09-09T14:02:32;17.70;99.90
59307;DHT22;47983;53.016;-2.260;2022-09-09T14:05:01;17.60;99.90
59307;DHT22;47983;53.016;-2.260;2022-09-09T14:07:28;17.60;99.90
59307;DHT22;47983;53.016;-2.260;2022-09-09T14:09:56;17.50;99.90
59307;DHT22;47983;53.016;-2.260;2022-09-09T14:12:23;17.50;99.90
59307;DHT22;47983;53.016;-2.260;2022-09-09T14:14:51;17.50;99.90
59307;DHT22;47983;53.016;-2.260;2022-09-09T14:17:18;17.40;99.90
59307;DHT22;47983;53.016;-2.260;2022-09-09T14:19:46;17.40;99.90
59307;DHT22;47983;53.016;-2.260;2022-09-09T14:22:14;17.40;99.90
59307;DHT22;47983;53.016;-2.260;2022-09-09T14:24:41;17.40;99.90
59307;DHT22;47983;53.016;-2.260;2022-09-09T14:27:12;17.40;99.90
59307;DHT22;47983;53.016;-2.260;2022-09-09T14:29:40;17.40;99.90
59307;DHT22;47983;53.016;-2.260;2022-09-09T14:32:07;17.40;99.90
59307;DHT22;47983;53.016;-2.260;2022-09-09T14:34:39;17.40;99.90
59307;DHT22;47983;53.016;-2.260;2022-09-09T14:37:06;17.40;99.90
59307;DHT22;47983;53.016;-2.260;2022-09-09T14:39:33;17.40;99.90
59307;DHT22;47983;53.016;-2.260;2022-09-09T14:42:01;17.40;99.90
59307;DHT22;47983;53.016;-2.260;2022-09-09T14:44:29;17.50;99.90
59307;DHT22;47983;53.016;-2.260;2022-09-09T14:46:57;17.50;99.90
59307;DHT22;47983;53.016;-2.260;2022-09-09T14:49:25;17.60;99.90
59307;DHT22;47983;53.016;-2.260;2022-09-09T14:51:53;17.70;99.90
59307;DHT22;47983;53.016;-2.260;2022-09-09T14:54:20;17.90;99.90
59307;DHT22;47983;53.016;-2.260;2022-09-09T14:56:50;18.20;99.90
59307;DHT22;47983;53.016;-2.260;2022-09-09T14:59:17;18.40;99.90
59307;DHT22;47983;53.016;-2.260;2022-09-09T15:01:44;18.60;99.90
59307;DHT22;47983;53.016;-2.260;2022-09-09T15:04:12;18.90;99.90
59307;DHT22;47983;53.016;-2.260;2022-09-09T15:06:42;19.00;99.90
59307;DHT22;47983;53.016;-2.260;2022-09-09T15:09:11;19.10;99.90
59307;DHT22;47983;53.016;-2.260;2022-09-09T15:11:38;19.20;99.90
59307;DHT22;47983;53.016;-2.260;2022-09-09T15:14:07;19.30;99.90
59307;DHT22;47983;53.016;-2.260;2022-09-09T15:16:35;19.30;99.90
59307;DHT22;47983;53.016;-2.260;2022-09-09T15:19:02;19.40;99.90
59307;DHT22;47983;53.016;-2.260;2022-09-09T15:21:31;19.40;99.90
59307;DHT22;47983;53.016;-2.260;2022-09-09T15:23:59;19.50;99.90
59307;DHT22;47983;53.016;-2.260;2022-09-09T15:26:26;19.60;99.90
59307;DHT22;47983;53.016;-2.260;2022-09-09T15:28:54;19.70;99.90
59307;DHT22;47983;53.016;-2.260;2022-09-09T15:31:23;19.70;99.90
59307;DHT22;47983;53.016;-2.260;2022-09-09T15:33:51;19.70;99.90
59307;DHT22;47983;53.016;-2.260;2022-09-09T15:36:23;19.70;99.90
59307;DHT22;47983;53.016;-2.260;2022-09-09T15:38:51;19.70;99.90
59307;DHT22;47983;53.016;-2.260;2022-09-09T15:41:19;19.70;99.90
59307;DHT22;47983;53.016;-2.260;2022-09-09T15:43:48;19.60;99.90
59307;DHT22;47983;53.016;-2.260;2022-09-09T15:48:44;19.50;99.90
59307;DHT22;47983;53.016;-2.260;2022-09-09T15:51:16;19.40;99.90
59307;DHT22;47983;53.016;-2.260;2022-09-09T15:54:03;19.40;99.90
59307;DHT22;47983;53.016;-2.260;2022-09-09T15:56:32;19.40;99.90
59307;DHT22;47983;53.016;-2.260;2022-09-09T15:59:00;19.40;99.90
59307;DHT22;47983;53.016;-2.260;2022-09-09T16:01:29;19.40;99.90
59307;DHT22;47983;53.016;-2.260;2022-09-09T16:03:58;19.50;99.90
59307;DHT22;47983;53.016;-2.260;2022-09-09T16:06:27;19.50;99.90
59307;DHT22;47983;53.016;-2.260;2022-09-09T16:08:56;19.50;99.90
59307;DHT22;47983;53.016;-2.260;2022-09-09T16:11:24;19.30;99.90
59307;DHT22;47983;53.016;-2.260;2022-09-09T16:13:53;18.90;99.90
59307;DHT22;47983;53.016;-2.260;2022-09-09T16:16:22;18.40;99.90
59307;DHT22;47983;53.016;-2.260;2022-09-09T16:18:51;18.00;99.90
59307;DHT22;47983;53.016;-2.260;2022-09-09T16:21:26;17.60;99.90
59307;DHT22;47983;53.016;-2.260;2022-09-09T16:23:57;17.20;99.90
59307;DHT22;47983;53.016;-2.260;2022-09-09T16:26:27;16.90;99.90
59307;DHT22;47983;53.016;-2.260;2022-09-09T16:28:54;16.60;99.90
59307;DHT22;47983;53.016;-2.260;2022-09-09T16:31:22;16.40;99.90
59307;DHT22;47983;53.016;-2.260;2022-09-09T16:33:51;16.20;99.90
59307;DHT22;47983;53.016;-2.260;2022-09-09T16:36:19;16.10;99.90
59307;DHT22;47983;53.016;-2.260;2022-09-09T16:38:47;15.90;99.90
59307;DHT22;47983;53.016;-2.260;2022-09-09T16:41:14;15.80;99.90
59307;DHT22;47983;53.016;-2.260;2022-09-09T16:43:42;15.70;99.90
59307;DHT22;47983;53.016;-2.260;2022-09-09T16:46:11;15.60;99.90
59307;DHT22;47983;53.016;-2.260;2022-09-09T16:48:41;15.50;99.90
59307;DHT22;47983;53.016;-2.260;2022-09-09T16:51:20;15.50;99.90
59307;DHT22;47983;53.016;-2.260;2022-09-09T16:53:48;15.50;99.90
59307;DHT22;47983;53.016;-2.260;2022-09-09T16:56:18;15.50;99.90
59307;DHT22;47983;53.016;-2.260;2022-09-09T16:58:50;15.50;99.90
59307;DHT22;47983;53.016;-2.260;2022-09-09T17:01:18;15.60;99.90
59307;DHT22;47983;53.016;-2.260;2022-09-09T17:03:45;15.60;99.90
59307;DHT22;47983;53.016;-2.260;2022-09-09T17:06:14;15.70;99.90
59307;DHT22;47983;53.016;-2.260;2022-09-09T17:08:42;15.80;99.90
59307;DHT22;47983;53.016;-2.260;2022-09-09T17:11:16;15.80;99.90
59307;DHT22;47983;53.016;-2.260;2022-09-09T17:13:45;15.80;99.90
59307;DHT22;47983;53.016;-2.260;2022-09-09T17:16:14;15.80;99.90
59307;DHT22;47983;53.016;-2.260;2022-09-09T17:18:42;15.90;99.90
59307;DHT22;47983;53.016;-2.260;2022-09-09T17:21:13;15.90;99.90
59307;DHT22;47983;53.016;-2.260;2022-09-09T17:23:41;16.00;99.90
59307;DHT22;47983;53.016;-2.260;2022-09-09T17:26:10;16.00;99.90
59307;DHT22;47983;53.016;-2.260;2022-09-09T17:28:39;16.10;99.90
59307;DHT22;47983;53.016;-2.260;2022-09-09T17:31:07;16.10;99.90
59307;DHT22;47983;53.016;-2.260;2022-09-09T17:33:36;16.10;99.90
59307;DHT22;47983;53.016;-2.260;2022-09-09T17:36:37;16.10;99.90
59307;DHT22;47983;53.016;-2.260;2022-09-09T17:38:57;16.10;99.90